sensor_id;sensor_type;location;lat;lon;timestamp;pressure;altitude;pressure_sealevel;temperature;humidity
78210;BME280;67485;48.816;9.930;2024-01-15T00:01:33;95801.03;;;-4.84;91.80
78210;BME280;67485;48.816;9.930;2024-01-15T00:04:00;95799.38;;;-4.82;91.50
78210;BME280;67485;48.816;9.930;2024-01-15T00:06:25;95794.25;;;-4.82;91.29
78210;BME280;67485;48.816;9.930;2024-01-15T00:08:52;95794.31;;;-4.77;91.20
78210;BME280;67485;48.816;9.930;2024-01-15T00:11:18;95794.38;;;-4.76;91.38
78210;BME280;67485;48.816;9.930;2024-01-15T00:13:43;95797.78;;;-4.74;91.40
78210;BME280;67485;48.816;9.930;2024-01-15T00:16:09;95785.91;;;-4.72;91.14
78210;BME280;67485;48.816;9.930;2024-01-15T00:18:35;95785.84;;;-4.75;90.94
78210;BME280;67485;48.816;9.930;2024-01-15T00:21:01;95779.88;;;-4.75;91.31
78210;BME280;67485;48.816;9.930;2024-01-15T00:23:27;95771.28;;;-4.79;91.23
78210;BME280;67485;48.816;9.930;2024-01-15T00:25:52;95770.50;;;-4.75;91.15
78210;BME280;67485;48.816;9.930;2024-01-15T00:28:18;95768.75;;;-4.79;90.91
78210;BME280;67485;48.816;9.930;2024-01-15T00:30:44;95770.38;;;-4.84;90.84
78210;BME280;67485;48.816;9.930;2024-01-15T00:33:09;95773.75;;;-4.85;91.15
78210;BME280;67485;48.816;9.930;2024-01-15T00:35:37;95772.84;;;-4.89;91.37
78210;BME280;67485;48.816;9.930;2024-01-15T00:38:03;95768.63;;;-4.85;91.60
78210;BME280;67485;48.816;9.930;2024-01-15T00:40:29;95763.50;;;-4.88;91.12
78210;BME280;67485;48.816;9.930;2024-01-15T00:42:54;95771.97;;;-4.89;90.97
78210;BME280;67485;48.816;9.930;2024-01-15T00:45:20;95777.03;;;-4.92;90.89
78210;BME280;67485;48.816;9.930;2024-01-15T00:47:46;95761.69;;;-4.94;91.02
78210;BME280;67485;48.816;9.930;2024-01-15T00:50:12;95766.69;;;-4.98;90.83
78210;BME280;67485;48.816;9.930;2024-01-15T00:52:38;95766.66;;;-5.01;90.95
78210;BME280;67485;48.816;9.930;2024-01-15T00:55:04;95769.19;;;-5.03;90.93
78210;BME280;67485;48.816;9.930;2024-01-15T00:57:29;95765.81;;;-5.02;91.48
78210;BME280;67485;48.816;9.930;2024-01-15T00:59:55;95767.50;;;-5.01;91.40
78210;BME280;67485;48.816;9.930;2024-01-15T01:02:21;95758.22;;;-4.97;91.04
78210;BME280;67485;48.816;9.930;2024-01-15T01:04:46;95759.03;;;-4.98;90.55
78210;BME280;67485;48.816;9.930;2024-01-15T01:07:12;95750.53;;;-4.99;91.37
78210;BME280;67485;48.816;9.930;2024-01-15T01:09:37;95756.44;;;-5.01;91.21
78210;BME280;67485;48.816;9.930;2024-01-15T01:12:03;95752.28;;;-4.96;91.47
78210;BME280;67485;48.816;9.930;2024-01-15T01:14:29;95750.59;;;-4.94;90.82
78210;BME280;67485;48.816;9.930;2024-01-15T01:16:55;95750.72;;;-4.88;91.08
78210;BME280;67485;48.816;9.930;2024-01-15T01:19:20;95753.19;;;-4.91;91.61
78210;BME280;67485;48.816;9.930;2024-01-15T01:21:46;95747.16;;;-4.98;91.60
78210;BME280;67485;48.816;9.930;2024-01-15T01:24:12;95751.53;;;-4.89;91.38
78210;BME280;67485;48.816;9.930;2024-01-15T01:26:37;95753.25;;;-4.88;91.55
78210;BME280;67485;48.816;9.930;2024-01-15T01:29:03;95746.44;;;-4.88;91.68
78210;BME280;67485;48.816;9.930;2024-01-15T01:31:28;95748.25;;;-4.82;91.78
78210;BME280;67485;48.816;9.930;2024-01-15T01:33:54;95747.47;;;-4.76;91.33
78210;BME280;67485;48.816;9.930;2024-01-15T01:36:20;95745.81;;;-4.76;90.96
78210;BME280;67485;48.816;9.930;2024-01-15T01:38:45;95748.38;;;-4.73;90.98
78210;BME280;67485;48.816;9.930;2024-01-15T01:41:11;95748.47;;;-4.66;90.84
78210;BME280;67485;48.816;9.930;2024-01-15T01:43:37;95745.13;;;-4.64;90.75
78210;BME280;67485;48.816;9.930;2024-01-15T01:46:03;95742.59;;;-4.61;90.54
78210;BME280;67485;48.816;9.930;2024-01-15T01:48:29;95738.34;;;-4.60;90.63
78210;BME280;67485;48.816;9.930;2024-01-15T01:50:58;95733.25;;;-4.57;90.35
78210;BME280;67485;48.816;9.930;2024-01-15T01:53:26;95740.16;;;-4.53;90.19
78210;BME280;67485;48.816;9.930;2024-01-15T01:55:52;95735.06;;;-4.53;90.49
78210;BME280;67485;48.816;9.930;2024-01-15T01:58:19;95741.06;;;-4.49;90.10
78210;BME280;67485;48.816;9.930;2024-01-15T02:00:46;95738.53;;;-4.48;90.92
78210;BME280;67485;48.816;9.930;2024-01-15T02:03:12;95738.56;;;-4.45;90.88
78210;BME280;67485;48.816;9.930;2024-01-15T02:05:39;95734.34;;;-4.41;90.99
78210;BME280;67485;48.816;9.930;2024-01-15T02:08:05;95738.72;;;-4.35;90.54
78210;BME280;67485;48.816;9.930;2024-01-15T02:10:31;95738.78;;;-4.29;90.85
78210;BME280;67485;48.816;9.930;2024-01-15T02:12:58;95737.16;;;-4.26;90.93
78210;BME280;67485;48.816;9.930;2024-01-15T02:15:24;95738.06;;;-4.20;90.99
78210;BME280;67485;48.816;9.930;2024-01-15T02:20:28;95731.41;;;-4.06;91.16
78210;BME280;67485;48.816;9.930;2024-01-15T02:22:53;95737.50;;;-3.99;91.12
78210;BME280;67485;48.816;9.930;2024-01-15T02:25:19;95734.13;;;-3.95;91.08
78210;BME280;67485;48.816;9.930;2024-01-15T02:27:46;95729.91;;;-3.90;91.11
78210;BME280;67485;48.816;9.930;2024-01-15T02:30:12;95737.66;;;-3.84;90.94
78210;BME280;67485;48.816;9.930;2024-01-15T02:32:38;95741.16;;;-3.76;90.79
78210;BME280;67485;48.816;9.930;2024-01-15T02:35:04;95742.06;;;-3.72;90.75
78210;BME280;67485;48.816;9.930;2024-01-15T02:37:30;95741.22;;;-3.69;90.05
78210;BME280;67485;48.816;9.930;2024-01-15T02:39:55;95737.03;;;-3.64;90.37
78210;BME280;67485;48.816;9.930;2024-01-15T02:42:21;95736.22;;;-3.62;89.82
78210;BME280;67485;48.816;9.930;2024-01-15T02:44:47;95736.25;;;-3.57;89.57
78210;BME280;67485;48.816;9.930;2024-01-15T02:47:14;95727.72;;;-3.56;89.54
78210;BME280;67485;48.816;9.930;2024-01-15T02:49:40;95724.31;;;-3.55;89.26
78210;BME280;67485;48.816;9.930;2024-01-15T02:52:06;95724.34;;;-3.52;89.14
78210;BME280;67485;48.816;9.930;2024-01-15T02:54:32;95721.00;;;-3.48;88.78
78210;BME280;67485;48.816;9.930;2024-01-15T02:56:57;95725.22;;;-3.50;88.64
78210;BME280;67485;48.816;9.930;2024-01-15T02:59:23;95727.81;;;-3.48;89.13
78210;BME280;67485;48.816;9.930;2024-01-15T03:01:48;95725.34;;;-3.40;88.58
78210;BME280;67485;48.816;9.930;2024-01-15T03:04:14;95726.25;;;-3.35;88.60
78210;BME280;67485;48.816;9.930;2024-01-15T03:06:40;95723.72;;;-3.31;88.92
78210;BME280;67485;48.816;9.930;2024-01-15T03:09:05;95717.75;;;-3.31;88.55
78210;BME280;67485;48.816;9.930;2024-01-15T03:11:38;95721.19;;;-3.29;88.41
78210;BME280;67485;48.816;9.930;2024-01-15T03:14:04;95716.06;;;-3.26;88.69
78210;BME280;67485;48.816;9.930;2024-01-15T03:16:30;95714.34;;;-3.27;88.45
78210;BME280;67485;48.816;9.930;2024-01-15T03:18:55;95722.09;;;-3.24;88.59
78210;BME280;67485;48.816;9.930;2024-01-15T03:21:21;95716.13;;;-3.23;88.23
78210;BME280;67485;48.816;9.930;2024-01-15T03:23:47;95716.13;;;-3.23;88.13
78210;BME280;67485;48.816;9.930;2024-01-15T03:26:12;95714.41;;;-3.21;88.13
78210;BME280;67485;48.816;9.930;2024-01-15T03:28:38;95716.16;;;-3.17;88.48
78210;BME280;67485;48.816;9.930;2024-01-15T03:31:03;95722.97;;;-3.19;88.38
78210;BME280;67485;48.816;9.930;2024-01-15T03:33:29;95719.63;;;-3.12;88.28
78210;BME280;67485;48.816;9.930;2024-01-15T03:35:55;95711.03;;;-3.17;88.55
78210;BME280;67485;48.816;9.930;2024-01-15T03:38:20;95722.19;;;-3.12;88.20
78210;BME280;67485;48.816;9.930;2024-01-15T03:40:46;95712.78;;;-3.13;88.32
78210;BME280;67485;48.816;9.930;2024-01-15T03:43:12;95712.78;;;-3.13;88.01
78210;BME280;67485;48.816;9.930;2024-01-15T03:45:38;95707.66;;;-3.13;88.56
78210;BME280;67485;48.816;9.930;2024-01-15T03:48:03;95714.53;;;-3.08;88.59
78210;BME280;67485;48.816;9.930;2024-01-15T03:50:29;95714.53;;;-3.08;88.75
78210;BME280;67485;48.816;9.930;2024-01-15T03:52:55;95711.13;;;-3.07;87.90
78210;BME280;67485;48.816;9.930;2024-01-15T03:55:20;95711.13;;;-3.04;88.01
78210;BME280;67485;48.816;9.930;2024-01-15T03:57:46;95706.00;;;-3.04;88.60
78210;BME280;67485;48.816;9.930;2024-01-15T04:00:13;95710.28;;;-3.05;88.36
78210;BME280;67485;48.816;9.930;2024-01-15T04:02:39;95695.78;;;-3.01;88.26
78210;BME280;67485;48.816;9.930;2024-01-15T04:05:05;95697.47;;;-3.03;87.94
78210;BME280;67485;48.816;9.930;2024-01-15T04:07:31;95693.25;;;-3.00;87.61
78210;BME280;67485;48.816;9.930;2024-01-15T04:09:56;95698.38;;;-2.98;87.81
78210;BME280;67485;48.816;9.930;2024-01-15T04:12:22;95693.25;;;-2.98;88.00
78210;BME280;67485;48.816;9.930;2024-01-15T04:14:47;95692.41;;;-2.99;87.59
78210;BME280;67485;48.816;9.930;2024-01-15T04:17:13;95691.53;;;-2.99;87.51
78210;BME280;67485;48.816;9.930;2024-01-15T04:19:39;95679.59;;;-2.97;88.02
78210;BME280;67485;48.816;9.930;2024-01-15T04:22:04;95678.75;;;-2.96;87.50
78210;BME280;67485;48.816;9.930;2024-01-15T04:24:31;95677.06;;;-2.94;87.79
78210;BME280;67485;48.816;9.930;2024-01-15T04:26:57;95688.16;;;-2.94;87.54
78210;BME280;67485;48.816;9.930;2024-01-15T04:29:22;95683.88;;;-2.93;87.90
78210;BME280;67485;48.816;9.930;2024-01-15T04:31:48;95676.22;;;-2.90;87.54
78210;BME280;67485;48.816;9.930;2024-01-15T04:34:14;95685.63;;;-2.89;87.70
78210;BME280;67485;48.816;9.930;2024-01-15T04:36:40;95687.38;;;-2.85;87.28
78210;BME280;67485;48.816;9.930;2024-01-15T04:39:06;95686.53;;;-2.85;87.75
78210;BME280;67485;48.816;9.930;2024-01-15T04:41:32;95682.25;;;-2.85;87.51
78210;BME280;67485;48.816;9.930;2024-01-15T04:43:57;95689.09;;;-2.81;87.40
78210;BME280;67485;48.816;9.930;2024-01-15T04:46:23;95681.44;;;-2.79;87.00
78210;BME280;67485;48.816;9.930;2024-01-15T04:48:49;95685.69;;;-2.80;86.76
78210;BME280;67485;48.816;9.930;2024-01-15T04:51:14;95684.00;;;-2.76;86.76
78210;BME280;67485;48.816;9.930;2024-01-15T04:53:41;95689.13;;;-2.78;86.63
78210;BME280;67485;48.816;9.930;2024-01-15T04:56:06;95690.88;;;-2.77;86.42
78210;BME280;67485;48.816;9.930;2024-01-15T04:58:32;95680.59;;;-2.73;86.26
78210;BME280;67485;48.816;9.930;2024-01-15T05:00:57;95689.16;;;-2.73;86.68
78210;BME280;67485;48.816;9.930;2024-01-15T05:03:23;95690.03;;;-2.71;86.50
78210;BME280;67485;48.816;9.930;2024-01-15T05:05:49;95692.59;;;-2.69;86.23
78210;BME280;67485;48.816;9.930;2024-01-15T05:08:14;95681.50;;;-2.70;86.27
78210;BME280;67485;48.816;9.930;2024-01-15T05:10:40;95684.06;;;-2.68;86.16
78210;BME280;67485;48.816;9.930;2024-01-15T05:13:06;95675.53;;;-2.67;86.48
78210;BME280;67485;48.816;9.930;2024-01-15T05:15:31;95676.38;;;-2.68;86.39
78210;BME280;67485;48.816;9.930;2024-01-15T05:17:57;95675.53;;;-2.67;85.82
78210;BME280;67485;48.816;9.930;2024-01-15T05:20:23;95672.06;;;-2.69;85.93
78210;BME280;67485;48.816;9.930;2024-01-15T05:22:48;95675.53;;;-2.70;86.43
78210;BME280;67485;48.816;9.930;2024-01-15T05:25:14;95660.13;;;-2.67;86.06
78210;BME280;67485;48.816;9.930;2024-01-15T05:27:39;95654.16;;;-2.68;86.29
78210;BME280;67485;48.816;9.930;2024-01-15T05:30:05;95671.25;;;-2.68;86.25
78210;BME280;67485;48.816;9.930;2024-01-15T05:32:32;95667.81;;;-2.69;86.22
78210;BME280;67485;48.816;9.930;2024-01-15T05:34:57;95672.97;;;-2.67;86.13
78210;BME280;67485;48.816;9.930;2024-01-15T05:37:23;95655.00;;;-2.67;85.97
78210;BME280;67485;48.816;9.930;2024-01-15T05:39:49;95663.56;;;-2.65;86.60
78210;BME280;67485;48.816;9.930;2024-01-15T05:42:14;95658.44;;;-2.65;86.49
78210;BME280;67485;48.816;9.930;2024-01-15T05:44:40;95668.72;;;-2.65;86.09
78210;BME280;67485;48.816;9.930;2024-01-15T05:47:05;95655.03;;;-2.64;86.09
78210;BME280;67485;48.816;9.930;2024-01-15T05:49:31;95657.59;;;-2.64;86.22
78210;BME280;67485;48.816;9.930;2024-01-15T05:51:57;95655.00;;;-2.67;86.25
78210;BME280;67485;48.816;9.930;2024-01-15T05:54:22;95656.69;;;-2.69;86.27
78210;BME280;67485;48.816;9.930;2024-01-15T05:56:48;95660.13;;;-2.67;85.78
78210;BME280;67485;48.816;9.930;2024-01-15T05:59:14;95649.03;;;-2.66;86.02
78210;BME280;67485;48.816;9.930;2024-01-15T06:01:39;95643.91;;;-2.68;86.21
78210;BME280;67485;48.816;9.930;2024-01-15T06:04:05;95641.34;;;-2.66;86.20
78210;BME280;67485;48.816;9.930;2024-01-15T06:06:32;95649.88;;;-2.67;86.52
78210;BME280;67485;48.816;9.930;2024-01-15T06:08:57;95649.88;;;-2.67;86.38
78210;BME280;67485;48.816;9.930;2024-01-15T06:11:29;95644.75;;;-2.70;86.34
78210;BME280;67485;48.816;9.930;2024-01-15T06:13:55;95639.63;;;-2.70;86.44
78210;BME280;67485;48.816;9.930;2024-01-15T06:16:21;95643.88;;;-2.69;86.73
78210;BME280;67485;48.816;9.930;2024-01-15T06:18:47;95643.91;;;-2.68;86.73
78210;BME280;67485;48.816;9.930;2024-01-15T06:21:13;95643.06;;;-2.65;86.82
78210;BME280;67485;48.816;9.930;2024-01-15T06:23:40;95637.94;;;-2.65;86.91
78210;BME280;67485;48.816;9.930;2024-01-15T06:26:06;95642.19;;;-2.66;87.01
78210;BME280;67485;48.816;9.930;2024-01-15T06:28:31;95649.03;;;-2.66;86.95
78210;BME280;67485;48.816;9.930;2024-01-15T06:30:57;95647.34;;;-2.63;86.55
78210;BME280;67485;48.816;9.930;2024-01-15T06:33:24;95650.75;;;-2.64;86.69
78210;BME280;67485;48.816;9.930;2024-01-15T06:35:50;95644.78;;;-2.61;86.91
78210;BME280;67485;48.816;9.930;2024-01-15T06:38:16;95639.66;;;-2.61;87.17
78210;BME280;67485;48.816;9.930;2024-01-15T06:40:41;95641.38;;;-2.62;87.22
78210;BME280;67485;48.816;9.930;2024-01-15T06:43:17;95642.22;;;-2.59;86.73
78210;BME280;67485;48.816;9.930;2024-01-15T06:45:43;95637.94;;;-2.61;87.03
78210;BME280;67485;48.816;9.930;2024-01-15T06:48:09;95634.53;;;-2.61;87.16
78210;BME280;67485;48.816;9.930;2024-01-15T06:50:35;95625.13;;;-2.61;87.54
78210;BME280;67485;48.816;9.930;2024-01-15T06:53:01;95619.13;;;-2.58;87.28
78210;BME280;67485;48.816;9.930;2024-01-15T06:55:26;95613.16;;;-2.58;87.65
78210;BME280;67485;48.816;9.930;2024-01-15T06:57:53;95603.75;;;-2.61;87.42
78210;BME280;67485;48.816;9.930;2024-01-15T07:00:19;95613.16;;;-2.58;87.84
78210;BME280;67485;48.816;9.930;2024-01-15T07:02:45;95620.03;;;-2.56;88.03
78210;BME280;67485;48.816;9.930;2024-01-15T07:05:11;95624.31;;;-2.55;87.89
78210;BME280;67485;48.816;9.930;2024-01-15T07:07:37;95619.16;;;-2.55;87.82
78210;BME280;67485;48.816;9.930;2024-01-15T07:10:03;95626.03;;;-2.51;87.95
78210;BME280;67485;48.816;9.930;2024-01-15T07:12:29;95632.88;;;-2.50;87.89
78210;BME280;67485;48.816;9.930;2024-01-15T07:14:56;95628.59;;;-2.52;87.78
78210;BME280;67485;48.816;9.930;2024-01-15T07:17:22;95621.78;;;-2.47;87.95
78210;BME280;67485;48.816;9.930;2024-01-15T07:19:47;95629.47;;;-2.46;87.82
78210;BME280;67485;48.816;9.930;2024-01-15T07:22:13;95633.75;;;-2.43;87.91
78210;BME280;67485;48.816;9.930;2024-01-15T07:24:40;95644.91;;;-2.42;87.96
78210;BME280;67485;48.816;9.930;2024-01-15T07:27:06;95639.75;;;-2.39;87.93
78210;BME280;67485;48.816;9.930;2024-01-15T07:29:31;95639.75;;;-2.39;87.90
78210;BME280;67485;48.816;9.930;2024-01-15T07:32:03;95636.34;;;-2.38;87.83
78210;BME280;67485;48.816;9.930;2024-01-15T07:34:29;95632.94;;;-2.37;87.67
78210;BME280;67485;48.816;9.930;2024-01-15T07:36:55;95636.38;;;-2.35;87.82
78210;BME280;67485;48.816;9.930;2024-01-15T07:39:21;95645.78;;;-2.37;87.89
78210;BME280;67485;48.816;9.930;2024-01-15T07:41:48;95640.66;;;-2.31;87.35
78210;BME280;67485;48.816;9.930;2024-01-15T07:44:14;95638.09;;;-2.28;87.60
78210;BME280;67485;48.816;9.930;2024-01-15T07:46:44;95640.66;;;-2.28;87.50
78210;BME280;67485;48.816;9.930;2024-01-15T07:49:09;95638.13;;;-2.25;87.54
78210;BME280;67485;48.816;9.930;2024-01-15T07:51:35;95644.97;;;-2.24;87.42
78210;BME280;67485;48.816;9.930;2024-01-15T07:54:01;95648.41;;;-2.22;87.37
78210;BME280;67485;48.816;9.930;2024-01-15T07:56:27;95648.44;;;-2.19;87.07
78210;BME280;67485;48.816;9.930;2024-01-15T07:58:53;95640.72;;;-2.17;86.75
78210;BME280;67485;48.816;9.930;2024-01-15T08:01:18;95639.88;;;-2.15;86.64
78210;BME280;67485;48.816;9.930;2024-01-15T08:03:44;95636.47;;;-2.12;86.83
78210;BME280;67485;48.816;9.930;2024-01-15T08:06:10;95633.91;;;-2.09;86.49
78210;BME280;67485;48.816;9.930;2024-01-15T08:08:39;95633.06;;;-2.06;86.23
78210;BME280;67485;48.816;9.930;2024-01-15T08:11:05;95628.78;;;-2.06;86.38
78210;BME280;67485;48.816;9.930;2024-01-15T08:13:30;95637.34;;;-2.01;85.83
78210;BME280;67485;48.816;9.930;2024-01-15T08:15:56;95642.53;;;-1.98;85.92
78210;BME280;67485;48.816;9.930;2024-01-15T08:18:22;95642.50;;;-1.94;85.59
78210;BME280;67485;48.816;9.930;2024-01-15T08:20:47;95639.94;;;-1.93;85.40
78210;BME280;67485;48.816;9.930;2024-01-15T08:23:13;95636.56;;;-1.89;85.04
78210;BME280;67485;48.816;9.930;2024-01-15T08:25:39;95635.69;;;-1.89;85.54
78210;BME280;67485;48.816;9.930;2024-01-15T08:28:04;95631.41;;;-1.89;85.03
78210;BME280;67485;48.816;9.930;2024-01-15T08:30:30;95622.00;;;-1.88;85.04
78210;BME280;67485;48.816;9.930;2024-01-15T08:32:56;95623.72;;;-1.86;85.01
78210;BME280;67485;48.816;9.930;2024-01-15T08:35:22;95619.44;;;-1.82;84.54
78210;BME280;67485;48.816;9.930;2024-01-15T08:37:52;95623.72;;;-1.80;84.44
78210;BME280;67485;48.816;9.930;2024-01-15T08:40:18;95628.03;;;-1.72;84.52
78210;BME280;67485;48.816;9.930;2024-01-15T08:42:44;95628.03;;;-1.72;84.01
78210;BME280;67485;48.816;9.930;2024-01-15T08:45:11;95628.91;;;-1.70;83.44
78210;BME280;67485;48.816;9.930;2024-01-15T08:47:37;95640.00;;;-1.68;83.87
78210;BME280;67485;48.816;9.930;2024-01-15T08:50:03;95637.44;;;-1.68;83.62
78210;BME280;67485;48.816;9.930;2024-01-15T08:52:29;95638.34;;;-1.60;83.51
78210;BME280;67485;48.816;9.930;2024-01-15T08:54:56;95641.75;;;-1.55;82.93
78210;BME280;67485;48.816;9.930;2024-01-15T08:57:22;95637.47;;;-1.54;83.23
78210;BME280;67485;48.816;9.930;2024-01-15T08:59:48;95643.47;;;-1.51;82.60
78210;BME280;67485;48.816;9.930;2024-01-15T09:02:14;95646.03;;;-1.51;82.71
78210;BME280;67485;48.816;9.930;2024-01-15T09:04:40;95649.47;;;-1.52;82.51
78210;BME280;67485;48.816;9.930;2024-01-15T09:07:07;95646.03;;;-1.52;82.34
78210;BME280;67485;48.816;9.930;2024-01-15T09:09:33;95642.63;;;-1.48;82.08
78210;BME280;67485;48.816;9.930;2024-01-15T09:12:00;95645.19;;;-1.50;81.60
78210;BME280;67485;48.816;9.930;2024-01-15T09:14:26;95643.50;;;-1.48;81.36
78210;BME280;67485;48.816;9.930;2024-01-15T09:16:53;95642.63;;;-1.45;81.21
78210;BME280;67485;48.816;9.930;2024-01-15T09:19:18;95634.91;;;-1.40;81.32
78210;BME280;67485;48.816;9.930;2024-01-15T09:21:44;95635.78;;;-1.43;80.54
78210;BME280;67485;48.816;9.930;2024-01-15T09:24:10;95629.78;;;-1.40;80.26
78210;BME280;67485;48.816;9.930;2024-01-15T09:26:36;95631.50;;;-1.39;80.05
78210;BME280;67485;48.816;9.930;2024-01-15T09:29:02;95633.22;;;-1.38;80.16
78210;BME280;67485;48.816;9.930;2024-01-15T09:31:28;95628.09;;;-1.35;79.40
78210;BME280;67485;48.816;9.930;2024-01-15T09:33:54;95628.09;;;-1.32;79.09
78210;BME280;67485;48.816;9.930;2024-01-15T09:36:24;95620.38;;;-1.27;79.07
78210;BME280;67485;48.816;9.930;2024-01-15T09:38:49;95613.50;;;-1.25;78.65
78210;BME280;67485;48.816;9.930;2024-01-15T09:41:15;95623.81;;;-1.22;78.63
78210;BME280;67485;48.816;9.930;2024-01-15T09:43:41;95620.38;;;-1.20;78.26
78210;BME280;67485;48.816;9.930;2024-01-15T09:46:07;95616.09;;;-1.16;77.74
78210;BME280;67485;48.816;9.930;2024-01-15T09:48:33;95621.22;;;-1.11;77.58
78210;BME280;67485;48.816;9.930;2024-01-15T09:51:01;95614.38;;;-1.06;77.96
78210;BME280;67485;48.816;9.930;2024-01-15T09:53:27;95604.94;;;-1.04;77.51
78210;BME280;67485;48.816;9.930;2024-01-15T09:55:53;95602.38;;;-1.01;77.21
78210;BME280;67485;48.816;9.930;2024-01-15T09:58:19;95598.94;;;-0.97;76.68
78210;BME280;67485;48.816;9.930;2024-01-15T10:00:45;95592.06;;;-0.92;76.51
78210;BME280;67485;48.816;9.930;2024-01-15T10:03:12;95583.47;;;-0.94;75.83
78210;BME280;67485;48.816;9.930;2024-01-15T10:05:38;95593.78;;;-0.91;75.66
78210;BME280;67485;48.816;9.930;2024-01-15T10:08:04;95597.22;;;-0.83;75.73
78210;BME280;67485;48.816;9.930;2024-01-15T10:10:31;95590.34;;;-0.87;75.04
78210;BME280;67485;48.816;9.930;2024-01-15T10:12:58;95574.06;;;-0.87;74.86
78210;BME280;67485;48.816;9.930;2024-01-15T10:15:25;95575.75;;;-0.89;75.09
78210;BME280;67485;48.816;9.930;2024-01-15T10:17:52;95569.78;;;-0.90;74.69
78210;BME280;67485;48.816;9.930;2024-01-15T10:20:17;95570.63;;;-0.89;74.51
78210;BME280;67485;48.816;9.930;2024-01-15T10:22:45;95564.63;;;-0.88;74.55
78210;BME280;67485;48.816;9.930;2024-01-15T10:25:13;95556.03;;;-0.79;74.23
78210;BME280;67485;48.816;9.930;2024-01-15T10:27:40;95561.16;;;-0.72;74.01
78210;BME280;67485;48.816;9.930;2024-01-15T10:30:10;95562.00;;;-0.68;73.40
78210;BME280;67485;48.816;9.930;2024-01-15T10:32:36;95556.00;;;-0.70;73.71
78210;BME280;67485;48.816;9.930;2024-01-15T10:35:02;95558.56;;;-0.70;73.83
78210;BME280;67485;48.816;9.930;2024-01-15T10:37:33;95548.28;;;-0.70;74.17
78210;BME280;67485;48.816;9.930;2024-01-15T10:40:01;95543.13;;;-0.70;73.57
78210;BME280;67485;48.816;9.930;2024-01-15T10:42:27;95543.16;;;-0.73;74.15
78210;BME280;67485;48.816;9.930;2024-01-15T10:44:53;95543.16;;;-0.72;73.42
78210;BME280;67485;48.816;9.930;2024-01-15T10:47:19;95537.13;;;-0.69;73.87
78210;BME280;67485;48.816;9.930;2024-01-15T10:49:45;95534.56;;;-0.69;74.00
78210;BME280;67485;48.816;9.930;2024-01-15T10:52:11;95528.53;;;-0.67;73.71
78210;BME280;67485;48.816;9.930;2024-01-15T10:54:37;95521.69;;;-0.60;73.97
78210;BME280;67485;48.816;9.930;2024-01-15T10:57:03;95529.34;;;-0.55;73.22
78210;BME280;67485;48.816;9.930;2024-01-15T10:59:30;95513.91;;;-0.52;72.85
78210;BME280;67485;48.816;9.930;2024-01-15T11:01:56;95523.31;;;-0.46;72.42
78210;BME280;67485;48.816;9.930;2024-01-15T11:04:22;95526.75;;;-0.44;72.21
78210;BME280;67485;48.816;9.930;2024-01-15T11:06:52;95528.47;;;-0.45;72.32
78210;BME280;67485;48.816;9.930;2024-01-15T11:09:21;95515.63;;;-0.48;71.72
78210;BME280;67485;48.816;9.930;2024-01-15T11:11:47;95522.50;;;-0.48;72.13
78210;BME280;67485;48.816;9.930;2024-01-15T11:14:47;95513.03;;;-0.46;72.50
78210;BME280;67485;48.816;9.930;2024-01-15T11:17:14;95507.88;;;-0.46;72.36
78210;BME280;67485;48.816;9.930;2024-01-15T11:19:44;95501.88;;;-0.47;72.39
78210;BME280;67485;48.816;9.930;2024-01-15T11:25:02;95514.69;;;-0.33;72.43
78210;BME280;67485;48.816;9.930;2024-01-15T11:27:45;95524.97;;;-0.28;72.59
78210;BME280;67485;48.816;9.930;2024-01-15T11:30:18;95516.41;;;-0.32;72.43
78210;BME280;67485;48.816;9.930;2024-01-15T11:32:45;95526.69;;;-0.35;72.97
78210;BME280;67485;48.816;9.930;2024-01-15T11:35:12;95518.16;;;-0.40;73.11
78210;BME280;67485;48.816;9.930;2024-01-15T11:40:21;95518.19;;;-0.50;74.22
78210;BME280;67485;48.816;9.930;2024-01-15T11:42:48;95516.53;;;-0.60;76.89
78210;BME280;67485;48.816;9.930;2024-01-15T11:45:18;95526.84;;;-0.69;79.74
78210;BME280;67485;48.816;9.930;2024-01-15T11:50:13;95528.63;;;-0.84;83.52
78210;BME280;67485;48.816;9.930;2024-01-15T11:52:45;95511.47;;;-0.88;85.49
78210;BME280;67485;48.816;9.930;2024-01-15T11:55:22;95508.03;;;-0.93;86.74
78210;BME280;67485;48.816;9.930;2024-01-15T11:57:52;95508.03;;;-0.93;88.02
78210;BME280;67485;48.816;9.930;2024-01-15T12:00:21;95515.78;;;-0.98;88.67
78210;BME280;67485;48.816;9.930;2024-01-15T12:02:48;95523.53;;;-1.08;89.29
78210;BME280;67485;48.816;9.930;2024-01-15T12:05:18;95519.22;;;-1.14;90.00
78210;BME280;67485;48.816;9.930;2024-01-15T12:07:48;95523.53;;;-1.21;90.78
78210;BME280;67485;48.816;9.930;2024-01-15T12:10:14;95523.56;;;-1.33;92.21
78210;BME280;67485;48.816;9.930;2024-01-15T12:13:05;95519.28;;;-1.33;92.80
78210;BME280;67485;48.816;9.930;2024-01-15T12:15:32;95517.56;;;-1.32;93.79
78210;BME280;67485;48.816;9.930;2024-01-15T12:17:59;95501.28;;;-1.28;94.08
78210;BME280;67485;48.816;9.930;2024-01-15T12:20:26;95494.44;;;-1.26;94.03
78210;BME280;67485;48.816;9.930;2024-01-15T12:22:52;95490.13;;;-1.22;93.77
78210;BME280;67485;48.816;9.930;2024-01-15T12:25:18;95483.31;;;-1.26;93.88
78210;BME280;67485;48.816;9.930;2024-01-15T12:27:45;95480.72;;;-1.31;94.34
78210;BME280;67485;48.816;9.930;2024-01-15T12:30:12;95483.31;;;-1.33;94.40
78210;BME280;67485;48.816;9.930;2024-01-15T12:32:40;95485.00;;;-1.35;94.79
78210;BME280;67485;48.816;9.930;2024-01-15T12:35:06;95481.56;;;-1.31;95.10
78210;BME280;67485;48.816;9.930;2024-01-15T12:37:32;95484.97;;;-1.25;95.13
78210;BME280;67485;48.816;9.930;2024-01-15T12:39:58;95478.13;;;-1.23;94.99
78210;BME280;67485;48.816;9.930;2024-01-15T12:42:24;95477.28;;;-1.24;95.08
78210;BME280;67485;48.816;9.930;2024-01-15T12:44:50;95485.88;;;-1.26;95.25
78210;BME280;67485;48.816;9.930;2024-01-15T12:47:16;95475.56;;;-1.25;95.34
78210;BME280;67485;48.816;9.930;2024-01-15T12:49:47;95484.16;;;-1.26;95.33
78210;BME280;67485;48.816;9.930;2024-01-15T12:52:15;95473.84;;;-1.26;95.42
78210;BME280;67485;48.816;9.930;2024-01-15T12:54:44;95465.31;;;-1.26;96.07
78210;BME280;67485;48.816;9.930;2024-01-15T12:57:09;95475.56;;;-1.23;95.73
78210;BME280;67485;48.816;9.930;2024-01-15T12:59:35;95478.97;;;-1.18;96.55
78210;BME280;67485;48.816;9.930;2024-01-15T13:02:01;95467.00;;;-1.16;96.40
78210;BME280;67485;48.816;9.930;2024-01-15T13:04:26;95467.84;;;-1.16;96.29
78210;BME280;67485;48.816;9.930;2024-01-15T13:06:52;95466.13;;;-1.15;96.18